• Join FlightAware (Why Join?)
  • Login
  • US Flag 
11:54PM EDT


 

Airport Tracker/Info


-or-


 

Live Flight TrackerFlight Track Log ✈ SWA378 ✈ 29-Apr-2013 ✈ KBWI - KALB

Flight Track Log - Related Links

Times and Time Zones

All times are in EDT time to prevent confusion due to time zone crossing. See the SWA378 flight status page for this flight to view local times or setup timezone preferences in your user account.

Time Position Orientation Groundspeed Altitude Reporting Facility
EDT Latitude Longitude Course Direction KTS MPH feet Rate Location/Type
10:27PM 39.1156 -76.6056 284° West 171 197 4,100  Level Washington Center
10:28PM 39.0764 -76.5300 124° Southeast 212 244 7,600 3,300 Climbing Washington Center
10:29PM 39.0689 -76.4392 96° East 231 266 10,700 3,060 Climbing Washington Center
10:30PM 39.1111 -76.3300 63° Northeast 245 282 13,800 2,940 Climbing Washington Center
10:31PM 39.1494 -76.2097 68° East 301 346 16,800 2,820 Climbing Washington Center
10:32PM 39.1622 -76.6111 284° West  Level FlightAware Approximate
10:32PM 39.1708 -76.0736 79° East 346 398 19,600  Level Washington Center
10:33PM 39.1881 -75.9344 81° East 376 433 22,000 1,200 Climbing Washington Center
10:34PM 39.2444 -75.8114 59° Northeast 385 443 22,000  Level Washington Center
10:35PM 39.3217 -75.7097 46° Northeast 380 437 22,000 240 Level Washington Center
10:36PM 39.3989 -75.6103 45° Northeast 385 443 22,500 1,440 Climbing Washington Center
10:37PM 39.4822 -75.5081 43° Northeast 391 450 24,900 2,580 Climbing Washington Center
10:38PM 39.5614 -75.4031 46° Northeast 401 461 27,700 1,980 Climbing Washington Center
10:39PM 39.6403 -75.2978 46° Northeast 406 467 29,000 720 Climbing Washington Center
10:40PM 39.7025 -75.2150 46° Northeast 405 466 29,000  Level New York Center
10:41PM 39.7775 -75.1036 49° Northeast 410 472 29,000  Level New York Center
10:42PM 39.8656 -74.9792 47° Northeast 419 482 29,000  Level New York Center
10:43PM 39.9336 -74.8831 47° Northeast 413 475 29,000  Level New York Center
10:44PM 40.0161 -74.7850 42° Northeast 403 464 29,000  Level New York Center
10:45PM 40.1094 -74.6764 42° Northeast 403 464 29,000  Level New York Center
10:46PM 40.1875 -74.5856 42° Northeast 403 464 29,000  Level New York Center
10:47PM 40.2828 -74.4711 42° Northeast 410 472 29,000 -360 Level New York Center
10:48PM 40.3669 -74.3722 42° Northeast 410 472 28,300 -900 Descending New York Center
10:50PM 40.5386 -74.1658 42° Northeast 422 486 26,300 -1,020 Descending Boston Center
10:51PM 40.6214 -74.0642 43° Northeast 417 480 25,300 -1,020 Descending Boston Center
10:52PM 40.7061 -73.9678 41° Northeast 411 473 24,300 -660 Descending Boston Center
10:53PM 40.7886 -73.8683 42° Northeast 406 467 24,000 -360 Descending Boston Center
10:54PM 40.8733 -73.7714 41° Northeast 401 461 23,600 -540 Descending Boston Center
10:55PM 40.9742 -73.7075 26° Northeast 395 455 23,000 -300 Descending Boston Center
10:56PM 41.0786 -73.6847 North 389 448 23,000 -300 Level Boston Center
10:57PM 41.1889 -73.6894 358° North 381 438 22,500 -780 Descending Boston Center
10:58PM 41.2972 -73.6972 357° North 386 444 21,500 -1,020 Descending Boston Center
10:59PM 41.4033 -73.7075 356° North 386 444 20,500 -780 Descending Boston Center
11:00PM 41.5053 -73.7125 358° North 381 438 20,000 -300 Descending Boston Center
11:01PM 41.6075 -73.7200 357° North 370 426 20,000 -120 Level Boston Center
11:02PM 41.7094 -73.7303 356° North 364 419 19,800 -1,020 Descending Boston Center
11:03PM 41.8156 -73.7353 358° North 346 398 18,000 -1,740 Descending Boston Center
11:04PM 41.9031 -73.7428 356° North 346 398 16,400 -1,800 Descending Boston Center
11:04PM 41.9739 -73.7497 356° North 342 394 15,000 -2,220 Descending Boston Center
11:05PM 42.0072 -73.7506 359° North 346 398 14,200 -2,220 Descending Boston Center
11:06PM 42.1031 -73.7553 358° North 346 398 12,100 -1,800 Descending Boston Center
11:07PM 42.1756 -73.7933 339° North 343 395 11,000 -1,200 Descending Boston Center
11:08PM 42.2628 -73.8231 346° North 314 361 10,000 -900 Descending Boston Center
11:09PM 42.3439 -73.8250 359° North 282 325 9,200 -900 Descending Boston Center
11:10PM 42.4208 -73.8406 352° North 284 327 8,200 -1,020 Descending Boston Center
11:11PM 42.5000 -73.8594 350° North 285 328 7,200 -1,260 Descending Boston Center
11:12PM 42.5706 -73.8750 351° North 258 297 5,700 -1,380 Descending Boston Center
11:13PM 42.6350 -73.8878 352° North 236 272 4,500 -1,140 Descending Boston Center
11:14PM 42.6975 -73.9006 351° North 218 251 3,500 -540 Descending Boston Center
11:15PM 42.7536 -73.9103 353° North 190 219 3,500  Level Boston Center
11:16PM 42.8078 -73.9144 357° North 191 220 3,500 -420 Level Boston Center
11:17PM 42.8519 -73.8789 31° Northeast 183 211 2,700 -840 Descending Boston Center
11:18PM 42.8442 -73.8275 102° East 130 150 1,900 -720 Descending Boston Center
11:19PM 42.8089 -73.8100 160° South 114 131 1,300 -600 Descending Boston Center
11:20PM 42.7736 -73.8064 176° South 124 143 700 -600 Descending Boston Center